Terminal Aerodrome Forecast
Issued by NWS

Home | Current Version | Previous Version | Text Only | Print | Product List | Glossary On
Versions: 1 2 3 4 5 6 7 8 9 10 11 12 13 14 15 16 17 18 19 20 21 22 23 24
000
FTUS46 KHNX 222342
TAFMER
TAF
KMER 222342Z 2300/2324 13007KT P6SM BKN030
     FM230300 VRB04KT 5SM HZ SCT040
     FM230900 33006KT 3SM BR SKC
      TEMPO 2310/2314 1SM BR
     FM232000 32007KT P6SM SKC=

USA.gov is the U.S. government's official web portal to all federal, state and local government web resources and services.